sensor_id;sensor_type;location;lat;lon;timestamp;P1;durP1;ratioP1;P2;durP2;ratioP2
21729;SDS011;11027;51.030;13.812;2023-07-16T00:02:23;10.40;;;2.80;;
21729;SDS011;11027;51.030;13.812;2023-07-16T00:04:48;6.28;;;2.50;;
21729;SDS011;11027;51.030;13.812;2023-07-16T00:07:14;9.27;;;2.70;;
21729;SDS011;11027;51.030;13.812;2023-07-16T00:09:39;5.00;;;2.35;;
21729;SDS011;11027;51.030;13.812;2023-07-16T00:12:04;8.35;;;2.33;;
21729;SDS011;11027;51.030;13.812;2023-07-16T00:14:30;7.82;;;2.25;;
21729;SDS011;11027;51.030;13.812;2023-07-16T00:16:55;6.95;;;2.50;;
21729;SDS011;11027;51.030;13.812;2023-07-16T00:19:20;5.93;;;2.45;;
21729;SDS011;11027;51.030;13.812;2023-07-16T00:21:46;5.32;;;2.20;;
21729;SDS011;11027;51.030;13.812;2023-07-16T00:24:11;7.70;;;2.47;;
21729;SDS011;11027;51.030;13.812;2023-07-16T00:26:36;3.70;;;2.05;;
21729;SDS011;11027;51.030;13.812;2023-07-16T00:29:02;7.38;;;2.38;;
21729;SDS011;11027;51.030;13.812;2023-07-16T00:31:27;9.65;;;2.17;;
21729;SDS011;11027;51.030;13.812;2023-07-16T00:33:52;6.90;;;2.80;;
21729;SDS011;11027;51.030;13.812;2023-07-16T00:36:17;4.38;;;2.17;;
21729;SDS011;11027;51.030;13.812;2023-07-16T00:38:43;6.00;;;2.00;;
21729;SDS011;11027;51.030;13.812;2023-07-16T00:41:10;3.72;;;2.10;;
21729;SDS011;11027;51.030;13.812;2023-07-16T00:43:37;7.05;;;2.40;;
21729;SDS011;11027;51.030;13.812;2023-07-16T00:46:02;3.75;;;1.90;;
21729;SDS011;11027;51.030;13.812;2023-07-16T00:48:28;3.80;;;1.90;;
21729;SDS011;11027;51.030;13.812;2023-07-16T00:50:54;6.00;;;2.28;;
21729;SDS011;11027;51.030;13.812;2023-07-16T00:53:20;3.83;;;1.98;;
21729;SDS011;11027;51.030;13.812;2023-07-16T00:55:46;5.03;;;2.05;;
21729;SDS011;11027;51.030;13.812;2023-07-16T00:58:11;3.60;;;2.15;;
21729;SDS011;11027;51.030;13.812;2023-07-16T01:00:38;8.57;;;1.90;;
21729;SDS011;11027;51.030;13.812;2023-07-16T01:03:05;6.90;;;2.10;;
21729;SDS011;11027;51.030;13.812;2023-07-16T01:08:30;3.03;;;1.92;;
21729;SDS011;11027;51.030;13.812;2023-07-16T01:11:16;4.40;;;2.00;;
21729;SDS011;11027;51.030;13.812;2023-07-16T01:13:42;6.85;;;2.03;;
21729;SDS011;11027;51.030;13.812;2023-07-16T01:16:18;9.30;;;2.38;;
21729;SDS011;11027;51.030;13.812;2023-07-16T01:18:45;5.28;;;1.95;;
21729;SDS011;11027;51.030;13.812;2023-07-16T01:21:10;3.88;;;1.95;;
21729;SDS011;11027;51.030;13.812;2023-07-16T01:31:54;2.72;;;1.70;;
21729;SDS011;11027;51.030;13.812;2023-07-16T01:34:21;4.60;;;1.73;;
21729;SDS011;11027;51.030;13.812;2023-07-16T01:36:48;4.68;;;1.77;;
21729;SDS011;11027;51.030;13.812;2023-07-16T01:39:14;3.20;;;1.70;;
21729;SDS011;11027;51.030;13.812;2023-07-16T01:41:40;2.20;;;1.63;;
21729;SDS011;11027;51.030;13.812;2023-07-16T01:44:05;1.70;;;1.40;;
21729;SDS011;11027;51.030;13.812;2023-07-16T01:46:31;2.83;;;1.73;;
21729;SDS011;11027;51.030;13.812;2023-07-16T01:48:57;1.98;;;1.40;;
21729;SDS011;11027;51.030;13.812;2023-07-16T01:51:22;2.15;;;1.30;;
21729;SDS011;11027;51.030;13.812;2023-07-16T01:53:47;2.17;;;1.73;;
21729;SDS011;11027;51.030;13.812;2023-07-16T01:56:13;2.00;;;1.35;;
21729;SDS011;11027;51.030;13.812;2023-07-16T01:58:38;3.35;;;1.50;;
21729;SDS011;11027;51.030;13.812;2023-07-16T02:01:03;2.38;;;1.40;;
21729;SDS011;11027;51.030;13.812;2023-07-16T02:03:29;1.35;;;1.08;;
21729;SDS011;11027;51.030;13.812;2023-07-16T02:05:54;3.05;;;1.30;;
21729;SDS011;11027;51.030;13.812;2023-07-16T02:08:19;1.77;;;1.10;;
21729;SDS011;11027;51.030;13.812;2023-07-16T02:10:47;2.03;;;1.05;;
21729;SDS011;11027;51.030;13.812;2023-07-16T02:13:13;1.42;;;1.15;;
21729;SDS011;11027;51.030;13.812;2023-07-16T02:15:38;0.77;;;0.77;;
21729;SDS011;11027;51.030;13.812;2023-07-16T02:18:04;2.03;;;1.07;;
21729;SDS011;11027;51.030;13.812;2023-07-16T02:20:29;2.92;;;1.10;;
21729;SDS011;11027;51.030;13.812;2023-07-16T02:22:54;3.28;;;1.00;;
21729;SDS011;11027;51.030;13.812;2023-07-16T02:25:19;1.33;;;0.90;;
21729;SDS011;11027;51.030;13.812;2023-07-16T02:27:45;2.53;;;0.90;;
21729;SDS011;11027;51.030;13.812;2023-07-16T02:30:10;2.22;;;1.10;;
21729;SDS011;11027;51.030;13.812;2023-07-16T02:32:35;1.98;;;1.00;;
21729;SDS011;11027;51.030;13.812;2023-07-16T02:35:01;2.55;;;0.95;;
21729;SDS011;11027;51.030;13.812;2023-07-16T02:37:28;2.33;;;1.00;;
21729;SDS011;11027;51.030;13.812;2023-07-16T02:39:53;2.35;;;1.00;;
21729;SDS011;11027;51.030;13.812;2023-07-16T02:42:19;3.03;;;0.93;;
21729;SDS011;11027;51.030;13.812;2023-07-16T02:44:44;2.10;;;0.88;;
21729;SDS011;11027;51.030;13.812;2023-07-16T02:47:12;1.45;;;0.77;;
21729;SDS011;11027;51.030;13.812;2023-07-16T02:49:38;2.08;;;1.05;;
21729;SDS011;11027;51.030;13.812;2023-07-16T02:52:04;1.50;;;0.90;;
21729;SDS011;11027;51.030;13.812;2023-07-16T02:54:30;2.08;;;1.30;;
21729;SDS011;11027;51.030;13.812;2023-07-16T02:56:55;1.83;;;1.10;;
21729;SDS011;11027;51.030;13.812;2023-07-16T02:59:20;8.10;;;0.85;;
21729;SDS011;11027;51.030;13.812;2023-07-16T03:01:46;2.70;;;0.80;;
21729;SDS011;11027;51.030;13.812;2023-07-16T03:04:11;2.63;;;0.73;;
21729;SDS011;11027;51.030;13.812;2023-07-16T03:06:37;3.33;;;0.85;;
21729;SDS011;11027;51.030;13.812;2023-07-16T03:09:02;1.00;;;0.60;;
21729;SDS011;11027;51.030;13.812;2023-07-16T03:11:28;1.95;;;0.80;;
21729;SDS011;11027;51.030;13.812;2023-07-16T03:13:53;4.47;;;0.90;;
21729;SDS011;11027;51.030;13.812;2023-07-16T03:16:18;2.72;;;0.90;;
21729;SDS011;11027;51.030;13.812;2023-07-16T03:18:44;4.32;;;1.00;;
21729;SDS011;11027;51.030;13.812;2023-07-16T03:21:10;3.55;;;0.75;;
21729;SDS011;11027;51.030;13.812;2023-07-16T03:23:35;1.75;;;0.90;;
21729;SDS011;11027;51.030;13.812;2023-07-16T03:26:00;1.35;;;0.80;;
21729;SDS011;11027;51.030;13.812;2023-07-16T03:28:26;1.88;;;0.90;;
21729;SDS011;11027;51.030;13.812;2023-07-16T03:30:51;1.27;;;0.80;;
21729;SDS011;11027;51.030;13.812;2023-07-16T03:33:17;2.92;;;0.85;;
21729;SDS011;11027;51.030;13.812;2023-07-16T03:35:45;1.88;;;1.00;;
21729;SDS011;11027;51.030;13.812;2023-07-16T03:38:11;2.97;;;0.95;;
21729;SDS011;11027;51.030;13.812;2023-07-16T03:40:37;2.40;;;0.88;;
21729;SDS011;11027;51.030;13.812;2023-07-16T03:43:03;2.50;;;1.00;;
21729;SDS011;11027;51.030;13.812;2023-07-16T03:45:29;4.15;;;1.08;;
21729;SDS011;11027;51.030;13.812;2023-07-16T03:47:54;2.15;;;1.00;;
21729;SDS011;11027;51.030;13.812;2023-07-16T03:50:19;4.82;;;1.50;;
21729;SDS011;11027;51.030;13.812;2023-07-16T03:52:45;3.85;;;1.25;;
21729;SDS011;11027;51.030;13.812;2023-07-16T03:55:10;3.05;;;1.05;;
21729;SDS011;11027;51.030;13.812;2023-07-16T03:57:35;3.75;;;1.20;;
21729;SDS011;11027;51.030;13.812;2023-07-16T04:00:04;6.50;;;1.20;;
21729;SDS011;11027;51.030;13.812;2023-07-16T04:02:34;2.65;;;1.08;;
21729;SDS011;11027;51.030;13.812;2023-07-16T04:04:59;2.42;;;1.50;;
21729;SDS011;11027;51.030;13.812;2023-07-16T04:07:25;2.97;;;1.30;;
21729;SDS011;11027;51.030;13.812;2023-07-16T04:09:50;2.65;;;1.27;;
21729;SDS011;11027;51.030;13.812;2023-07-16T04:12:16;3.30;;;1.08;;
21729;SDS011;11027;51.030;13.812;2023-07-16T04:14:41;2.10;;;1.20;;
21729;SDS011;11027;51.030;13.812;2023-07-16T04:17:07;1.40;;;0.88;;
21729;SDS011;11027;51.030;13.812;2023-07-16T04:19:32;2.90;;;1.17;;
21729;SDS011;11027;51.030;13.812;2023-07-16T04:21:57;3.78;;;1.30;;
21729;SDS011;11027;51.030;13.812;2023-07-16T04:24:22;4.22;;;1.05;;
21729;SDS011;11027;51.030;13.812;2023-07-16T04:26:48;2.45;;;1.13;;
21729;SDS011;11027;51.030;13.812;2023-07-16T04:29:14;2.63;;;1.10;;
21729;SDS011;11027;51.030;13.812;2023-07-16T04:31:39;3.20;;;1.25;;
21729;SDS011;11027;51.030;13.812;2023-07-16T04:34:04;2.40;;;1.17;;
21729;SDS011;11027;51.030;13.812;2023-07-16T04:36:29;4.28;;;1.40;;
21729;SDS011;11027;51.030;13.812;2023-07-16T04:38:55;4.13;;;1.00;;
21729;SDS011;11027;51.030;13.812;2023-07-16T04:41:20;2.17;;;1.08;;
21729;SDS011;11027;51.030;13.812;2023-07-16T04:43:45;3.30;;;1.15;;
21729;SDS011;11027;51.030;13.812;2023-07-16T04:46:10;3.80;;;1.27;;
21729;SDS011;11027;51.030;13.812;2023-07-16T04:48:37;2.40;;;1.25;;
21729;SDS011;11027;51.030;13.812;2023-07-16T04:51:02;3.15;;;1.58;;
21729;SDS011;11027;51.030;13.812;2023-07-16T04:53:27;2.15;;;1.38;;
21729;SDS011;11027;51.030;13.812;2023-07-16T04:55:53;1.67;;;1.20;;
21729;SDS011;11027;51.030;13.812;2023-07-16T04:58:18;1.42;;;1.20;;
21729;SDS011;11027;51.030;13.812;2023-07-16T05:00:43;3.25;;;1.23;;
21729;SDS011;11027;51.030;13.812;2023-07-16T05:03:09;1.85;;;1.00;;
21729;SDS011;11027;51.030;13.812;2023-07-16T05:05:34;4.32;;;1.50;;
21729;SDS011;11027;51.030;13.812;2023-07-16T05:08:00;1.60;;;1.17;;
21729;SDS011;11027;51.030;13.812;2023-07-16T05:10:26;2.78;;;1.35;;
21729;SDS011;11027;51.030;13.812;2023-07-16T05:12:52;1.70;;;1.35;;
21729;SDS011;11027;51.030;13.812;2023-07-16T05:15:17;3.28;;;1.23;;
21729;SDS011;11027;51.030;13.812;2023-07-16T05:17:42;1.90;;;1.17;;
21729;SDS011;11027;51.030;13.812;2023-07-16T05:20:08;2.00;;;1.10;;
21729;SDS011;11027;51.030;13.812;2023-07-16T05:22:34;3.22;;;1.35;;
21729;SDS011;11027;51.030;13.812;2023-07-16T05:25:00;1.40;;;1.05;;
21729;SDS011;11027;51.030;13.812;2023-07-16T05:27:25;2.35;;;1.25;;
21729;SDS011;11027;51.030;13.812;2023-07-16T05:29:50;2.00;;;1.40;;
21729;SDS011;11027;51.030;13.812;2023-07-16T05:32:16;2.33;;;1.30;;
21729;SDS011;11027;51.030;13.812;2023-07-16T05:34:41;1.35;;;1.20;;
21729;SDS011;11027;51.030;13.812;2023-07-16T05:37:06;2.00;;;1.10;;
21729;SDS011;11027;51.030;13.812;2023-07-16T05:39:32;1.98;;;1.00;;
21729;SDS011;11027;51.030;13.812;2023-07-16T05:41:57;2.90;;;1.20;;
21729;SDS011;11027;51.030;13.812;2023-07-16T05:44:22;2.25;;;1.10;;
21729;SDS011;11027;51.030;13.812;2023-07-16T05:46:47;2.13;;;1.30;;
21729;SDS011;11027;51.030;13.812;2023-07-16T05:49:13;2.28;;;1.60;;
21729;SDS011;11027;51.030;13.812;2023-07-16T05:51:38;1.73;;;1.10;;
21729;SDS011;11027;51.030;13.812;2023-07-16T05:54:04;1.42;;;1.00;;
21729;SDS011;11027;51.030;13.812;2023-07-16T05:56:29;3.17;;;1.02;;
21729;SDS011;11027;51.030;13.812;2023-07-16T05:58:54;1.42;;;1.15;;
21729;SDS011;11027;51.030;13.812;2023-07-16T06:01:20;4.40;;;1.00;;
21729;SDS011;11027;51.030;13.812;2023-07-16T06:03:45;3.67;;;1.20;;
21729;SDS011;11027;51.030;13.812;2023-07-16T06:06:10;1.48;;;1.05;;
21729;SDS011;11027;51.030;13.812;2023-07-16T06:08:35;3.00;;;1.17;;
21729;SDS011;11027;51.030;13.812;2023-07-16T06:11:01;4.45;;;1.02;;
21729;SDS011;11027;51.030;13.812;2023-07-16T06:13:26;5.05;;;1.30;;
21729;SDS011;11027;51.030;13.812;2023-07-16T06:15:51;2.22;;;1.02;;
21729;SDS011;11027;51.030;13.812;2023-07-16T06:18:17;3.33;;;1.20;;
21729;SDS011;11027;51.030;13.812;2023-07-16T06:20:43;5.50;;;1.35;;
21729;SDS011;11027;51.030;13.812;2023-07-16T06:23:09;3.40;;;1.20;;
21729;SDS011;11027;51.030;13.812;2023-07-16T06:25:36;1.45;;;1.02;;
21729;SDS011;11027;51.030;13.812;2023-07-16T06:28:01;1.92;;;1.00;;
21729;SDS011;11027;51.030;13.812;2023-07-16T06:30:26;3.70;;;1.05;;
21729;SDS011;11027;51.030;13.812;2023-07-16T06:32:51;1.88;;;1.10;;
21729;SDS011;11027;51.030;13.812;2023-07-16T06:35:17;1.42;;;1.00;;
21729;SDS011;11027;51.030;13.812;2023-07-16T06:37:42;1.77;;;1.10;;
21729;SDS011;11027;51.030;13.812;2023-07-16T06:40:07;2.28;;;1.17;;
21729;SDS011;11027;51.030;13.812;2023-07-16T06:42:33;1.77;;;1.20;;
21729;SDS011;11027;51.030;13.812;2023-07-16T06:44:58;2.38;;;1.40;;
21729;SDS011;11027;51.030;13.812;2023-07-16T06:47:24;2.58;;;1.27;;
21729;SDS011;11027;51.030;13.812;2023-07-16T06:49:49;7.28;;;1.70;;
21729;SDS011;11027;51.030;13.812;2023-07-16T06:52:21;1.30;;;1.20;;
21729;SDS011;11027;51.030;13.812;2023-07-16T06:54:47;2.05;;;1.02;;
21729;SDS011;11027;51.030;13.812;2023-07-16T06:57:13;1.70;;;1.13;;
21729;SDS011;11027;51.030;13.812;2023-07-16T06:59:39;1.00;;;0.90;;
21729;SDS011;11027;51.030;13.812;2023-07-16T07:02:04;3.15;;;1.00;;
21729;SDS011;11027;51.030;13.812;2023-07-16T07:04:30;3.33;;;1.00;;
21729;SDS011;11027;51.030;13.812;2023-07-16T07:06:55;1.40;;;1.05;;
21729;SDS011;11027;51.030;13.812;2023-07-16T07:09:20;1.52;;;1.00;;
21729;SDS011;11027;51.030;13.812;2023-07-16T07:11:46;1.60;;;1.00;;
21729;SDS011;11027;51.030;13.812;2023-07-16T07:14:11;1.38;;;1.00;;
21729;SDS011;11027;51.030;13.812;2023-07-16T07:16:36;1.40;;;1.30;;
21729;SDS011;11027;51.030;13.812;2023-07-16T07:19:01;3.80;;;1.35;;
21729;SDS011;11027;51.030;13.812;2023-07-16T07:21:27;1.88;;;1.05;;
21729;SDS011;11027;51.030;13.812;2023-07-16T07:23:52;1.33;;;1.00;;
21729;SDS011;11027;51.030;13.812;2023-07-16T07:26:18;1.20;;;0.88;;
21729;SDS011;11027;51.030;13.812;2023-07-16T07:28:43;1.27;;;0.98;;
21729;SDS011;11027;51.030;13.812;2023-07-16T07:31:08;1.33;;;1.10;;
21729;SDS011;11027;51.030;13.812;2023-07-16T07:33:33;0.80;;;0.80;;
21729;SDS011;11027;51.030;13.812;2023-07-16T07:35:59;1.98;;;0.90;;
21729;SDS011;11027;51.030;13.812;2023-07-16T07:38:24;2.25;;;1.10;;
21729;SDS011;11027;51.030;13.812;2023-07-16T07:40:49;2.58;;;1.10;;
21729;SDS011;11027;51.030;13.812;2023-07-16T07:43:15;2.72;;;1.15;;
21729;SDS011;11027;51.030;13.812;2023-07-16T07:45:40;2.20;;;1.20;;
21729;SDS011;11027;51.030;13.812;2023-07-16T07:48:05;2.40;;;1.02;;
21729;SDS011;11027;51.030;13.812;2023-07-16T07:50:30;2.63;;;1.10;;
21729;SDS011;11027;51.030;13.812;2023-07-16T07:52:56;2.83;;;0.95;;
21729;SDS011;11027;51.030;13.812;2023-07-16T07:55:21;4.30;;;1.20;;
21729;SDS011;11027;51.030;13.812;2023-07-16T07:57:46;2.40;;;1.00;;
21729;SDS011;11027;51.030;13.812;2023-07-16T08:00:12;1.38;;;0.85;;
21729;SDS011;11027;51.030;13.812;2023-07-16T08:02:37;3.55;;;2.60;;
21729;SDS011;11027;51.030;13.812;2023-07-16T08:05:03;2.42;;;1.33;;
21729;SDS011;11027;51.030;13.812;2023-07-16T08:07:29;3.40;;;1.20;;
21729;SDS011;11027;51.030;13.812;2023-07-16T08:09:54;3.33;;;1.02;;
21729;SDS011;11027;51.030;13.812;2023-07-16T08:12:19;3.75;;;1.20;;
21729;SDS011;11027;51.030;13.812;2023-07-16T08:14:44;2.17;;;1.10;;
21729;SDS011;11027;51.030;13.812;2023-07-16T08:17:10;1.40;;;1.02;;
21729;SDS011;11027;51.030;13.812;2023-07-16T08:19:35;2.83;;;1.00;;
21729;SDS011;11027;51.030;13.812;2023-07-16T08:22:00;2.58;;;1.38;;
21729;SDS011;11027;51.030;13.812;2023-07-16T08:24:26;3.75;;;1.52;;
21729;SDS011;11027;51.030;13.812;2023-07-16T08:26:51;2.75;;;1.17;;
21729;SDS011;11027;51.030;13.812;2023-07-16T08:29:16;6.57;;;1.30;;
21729;SDS011;11027;51.030;13.812;2023-07-16T08:31:42;5.43;;;1.63;;
21729;SDS011;11027;51.030;13.812;2023-07-16T08:34:07;3.72;;;1.33;;
21729;SDS011;11027;51.030;13.812;2023-07-16T08:36:32;4.35;;;1.35;;
21729;SDS011;11027;51.030;13.812;2023-07-16T08:38:58;2.83;;;1.42;;
21729;SDS011;11027;51.030;13.812;2023-07-16T08:41:23;3.33;;;1.40;;
21729;SDS011;11027;51.030;13.812;2023-07-16T08:43:49;4.28;;;1.42;;
21729;SDS011;11027;51.030;13.812;2023-07-16T08:46:15;3.35;;;1.50;;
21729;SDS011;11027;51.030;13.812;2023-07-16T08:48:40;2.38;;;1.40;;
21729;SDS011;11027;51.030;13.812;2023-07-16T08:51:06;4.40;;;1.40;;
21729;SDS011;11027;51.030;13.812;2023-07-16T08:53:32;2.42;;;1.48;;
21729;SDS011;11027;51.030;13.812;2023-07-16T08:55:57;3.53;;;1.50;;
21729;SDS011;11027;51.030;13.812;2023-07-16T08:58:23;1.42;;;1.30;;
21729;SDS011;11027;51.030;13.812;2023-07-16T09:00:49;1.70;;;1.10;;
21729;SDS011;11027;51.030;13.812;2023-07-16T09:03:15;1.38;;;1.13;;
21729;SDS011;11027;51.030;13.812;2023-07-16T09:05:41;3.05;;;2.00;;
21729;SDS011;11027;51.030;13.812;2023-07-16T09:08:09;3.22;;;1.30;;
21729;SDS011;11027;51.030;13.812;2023-07-16T09:10:34;2.65;;;1.20;;
21729;SDS011;11027;51.030;13.812;2023-07-16T09:13:00;2.70;;;1.42;;
21729;SDS011;11027;51.030;13.812;2023-07-16T09:15:25;2.78;;;1.20;;
21729;SDS011;11027;51.030;13.812;2023-07-16T09:17:53;3.35;;;1.20;;
21729;SDS011;11027;51.030;13.812;2023-07-16T09:20:19;2.33;;;1.25;;
21729;SDS011;11027;51.030;13.812;2023-07-16T09:22:44;2.25;;;1.15;;
21729;SDS011;11027;51.030;13.812;2023-07-16T09:25:12;3.25;;;1.23;;
21729;SDS011;11027;51.030;13.812;2023-07-16T09:27:37;2.28;;;1.30;;
21729;SDS011;11027;51.030;13.812;2023-07-16T09:30:05;2.22;;;1.10;;
21729;SDS011;11027;51.030;13.812;2023-07-16T09:32:35;3.17;;;1.20;;
21729;SDS011;11027;51.030;13.812;2023-07-16T09:35:06;3.50;;;1.23;;
21729;SDS011;11027;51.030;13.812;2023-07-16T09:37:32;2.43;;;1.43;;
21729;SDS011;11027;51.030;13.812;2023-07-16T09:40:00;2.08;;;1.50;;
21729;SDS011;11027;51.030;13.812;2023-07-16T09:42:28;1.83;;;1.48;;
21729;SDS011;11027;51.030;13.812;2023-07-16T09:44:54;3.03;;;1.13;;
21729;SDS011;11027;51.030;13.812;2023-07-16T09:47:21;2.67;;;1.20;;
21729;SDS011;11027;51.030;13.812;2023-07-16T09:49:46;3.20;;;1.42;;
21729;SDS011;11027;51.030;13.812;2023-07-16T09:52:12;6.63;;;1.52;;
21729;SDS011;11027;51.030;13.812;2023-07-16T09:54:39;4.13;;;1.48;;
21729;SDS011;11027;51.030;13.812;2023-07-16T09:57:06;3.15;;;1.40;;
21729;SDS011;11027;51.030;13.812;2023-07-16T09:59:33;2.55;;;1.30;;
21729;SDS011;11027;51.030;13.812;2023-07-16T10:01:59;3.15;;;1.25;;
21729;SDS011;11027;51.030;13.812;2023-07-16T10:04:25;2.63;;;1.10;;
21729;SDS011;11027;51.030;13.812;2023-07-16T10:06:58;3.45;;;1.08;;
21729;SDS011;11027;51.030;13.812;2023-07-16T10:09:34;1.95;;;1.00;;
21729;SDS011;11027;51.030;13.812;2023-07-16T10:12:23;3.47;;;1.13;;
21729;SDS011;11027;51.030;13.812;2023-07-16T10:14:53;4.20;;;1.27;;
21729;SDS011;11027;51.030;13.812;2023-07-16T10:17:23;3.35;;;1.92;;
21729;SDS011;11027;51.030;13.812;2023-07-16T10:20:03;4.68;;;1.40;;
21729;SDS011;11027;51.030;13.812;2023-07-16T10:22:39;5.28;;;1.40;;
21729;SDS011;11027;51.030;13.812;2023-07-16T10:27:47;2.97;;;1.27;;
21729;SDS011;11027;51.030;13.812;2023-07-16T10:30:13;4.22;;;1.55;;
21729;SDS011;11027;51.030;13.812;2023-07-16T10:32:40;2.42;;;1.20;;
21729;SDS011;11027;51.030;13.812;2023-07-16T10:35:06;4.82;;;1.27;;
21729;SDS011;11027;51.030;13.812;2023-07-16T10:37:36;2.88;;;1.23;;
21729;SDS011;11027;51.030;13.812;2023-07-16T10:40:02;2.72;;;1.40;;
21729;SDS011;11027;51.030;13.812;2023-07-16T10:42:29;2.90;;;1.40;;
21729;SDS011;11027;51.030;13.812;2023-07-16T10:44:55;3.50;;;1.27;;
21729;SDS011;11027;51.030;13.812;2023-07-16T10:47:24;3.10;;;1.20;;
21729;SDS011;11027;51.030;13.812;2023-07-16T10:50:00;2.72;;;1.20;;
21729;SDS011;11027;51.030;13.812;2023-07-16T10:52:29;3.78;;;1.33;;
21729;SDS011;11027;51.030;13.812;2023-07-16T10:54:54;3.95;;;1.40;;
21729;SDS011;11027;51.030;13.812;2023-07-16T10:57:20;2.80;;;1.50;;
21729;SDS011;11027;51.030;13.812;2023-07-16T10:59:46;2.17;;;1.30;;
21729;SDS011;11027;51.030;13.812;2023-07-16T11:02:13;4.35;;;1.27;;
21729;SDS011;11027;51.030;13.812;2023-07-16T11:04:42;2.90;;;1.40;;
21729;SDS011;11027;51.030;13.812;2023-07-16T11:07:10;1.98;;;1.27;;
21729;SDS011;11027;51.030;13.812;2023-07-16T11:09:46;2.78;;;1.25;;
21729;SDS011;11027;51.030;13.812;2023-07-16T11:12:13;9.27;;;1.80;;
21729;SDS011;11027;51.030;13.812;2023-07-16T11:14:46;2.00;;;1.42;;
21729;SDS011;11027;51.030;13.812;2023-07-16T11:17:13;2.22;;;1.33;;
21729;SDS011;11027;51.030;13.812;2023-07-16T11:19:39;1.98;;;1.40;;
21729;SDS011;11027;51.030;13.812;2023-07-16T11:22:07;3.38;;;1.40;;
21729;SDS011;11027;51.030;13.812;2023-07-16T11:24:37;3.22;;;1.60;;
21729;SDS011;11027;51.030;13.812;2023-07-16T11:29:48;1.65;;;1.15;;
21729;SDS011;11027;51.030;13.812;2023-07-16T11:32:33;2.08;;;1.20;;
21729;SDS011;11027;51.030;13.812;2023-07-16T11:35:01;2.72;;;1.30;;
21729;SDS011;11027;51.030;13.812;2023-07-16T11:37:28;1.80;;;1.23;;
21729;SDS011;11027;51.030;13.812;2023-07-16T11:39:55;3.60;;;1.40;;
21729;SDS011;11027;51.030;13.812;2023-07-16T11:42:29;2.55;;;1.52;;
21729;SDS011;11027;51.030;13.812;2023-07-16T11:44:56;2.65;;;1.38;;
21729;SDS011;11027;51.030;13.812;2023-07-16T11:47:22;5.88;;;1.60;;
21729;SDS011;11027;51.030;13.812;2023-07-16T11:49:50;3.65;;;1.52;;
21729;SDS011;11027;51.030;13.812;2023-07-16T11:52:20;4.22;;;1.70;;
21729;SDS011;11027;51.030;13.812;2023-07-16T11:57:13;2.90;;;1.52;;
21729;SDS011;11027;51.030;13.812;2023-07-16T11:59:38;3.90;;;1.42;;
21729;SDS011;11027;51.030;13.812;2023-07-16T12:02:04;3.13;;;1.50;;
21729;SDS011;11027;51.030;13.812;2023-07-16T12:04:29;4.82;;;1.50;;
21729;SDS011;11027;51.030;13.812;2023-07-16T12:06:55;6.25;;;1.55;;
21729;SDS011;11027;51.030;13.812;2023-07-16T12:09:20;3.22;;;1.50;;
21729;SDS011;11027;51.030;13.812;2023-07-16T12:11:45;4.97;;;3.50;;
21729;SDS011;11027;51.030;13.812;2023-07-16T12:14:10;6.13;;;1.75;;
21729;SDS011;11027;51.030;13.812;2023-07-16T12:16:37;6.78;;;1.55;;
21729;SDS011;11027;51.030;13.812;2023-07-16T12:19:05;7.80;;;1.38;;
21729;SDS011;11027;51.030;13.812;2023-07-16T12:21:30;3.15;;;1.38;;
21729;SDS011;11027;51.030;13.812;2023-07-16T12:23:55;4.10;;;1.53;;
21729;SDS011;11027;51.030;13.812;2023-07-16T12:26:21;2.30;;;1.40;;
21729;SDS011;11027;51.030;13.812;2023-07-16T12:28:46;4.90;;;1.80;;
21729;SDS011;11027;51.030;13.812;2023-07-16T12:31:11;2.27;;;1.47;;
21729;SDS011;11027;51.030;13.812;2023-07-16T12:33:37;4.13;;;1.73;;
21729;SDS011;11027;51.030;13.812;2023-07-16T12:36:02;5.97;;;1.38;;
21729;SDS011;11027;51.030;13.812;2023-07-16T12:38:28;3.75;;;1.50;;
21729;SDS011;11027;51.030;13.812;2023-07-16T12:40:53;4.57;;;1.40;;
21729;SDS011;11027;51.030;13.812;2023-07-16T12:43:18;3.00;;;1.60;;
21729;SDS011;11027;51.030;13.812;2023-07-16T12:45:44;3.25;;;1.50;;
21729;SDS011;11027;51.030;13.812;2023-07-16T12:48:09;4.90;;;1.57;;
21729;SDS011;11027;51.030;13.812;2023-07-16T12:50:34;4.07;;;1.40;;
21729;SDS011;11027;51.030;13.812;2023-07-16T12:52:59;3.78;;;1.60;;
21729;SDS011;11027;51.030;13.812;2023-07-16T12:55:25;2.90;;;1.40;;
21729;SDS011;11027;51.030;13.812;2023-07-16T12:57:50;5.05;;;1.20;;
21729;SDS011;11027;51.030;13.812;2023-07-16T13:00:15;3.38;;;1.63;;
21729;SDS011;11027;51.030;13.812;2023-07-16T13:02:41;3.30;;;1.50;;
21729;SDS011;11027;51.030;13.812;2023-07-16T13:05:06;3.67;;;1.55;;
21729;SDS011;11027;51.030;13.812;2023-07-16T13:07:32;3.90;;;1.55;;
21729;SDS011;11027;51.030;13.812;2023-07-16T13:09:58;4.68;;;1.63;;
21729;SDS011;11027;51.030;13.812;2023-07-16T13:12:23;3.13;;;1.33;;
21729;SDS011;11027;51.030;13.812;2023-07-16T13:14:49;7.33;;;1.40;;
21729;SDS011;11027;51.030;13.812;2023-07-16T13:17:14;2.90;;;1.50;;
21729;SDS011;11027;51.030;13.812;2023-07-16T13:19:41;3.17;;;1.55;;
21729;SDS011;11027;51.030;13.812;2023-07-16T13:22:06;3.00;;;1.52;;
21729;SDS011;11027;51.030;13.812;2023-07-16T13:24:32;2.33;;;1.30;;
21729;SDS011;11027;51.030;13.812;2023-07-16T13:26:58;2.65;;;1.38;;
21729;SDS011;11027;51.030;13.812;2023-07-16T13:29:23;3.67;;;1.40;;
21729;SDS011;11027;51.030;13.812;2023-07-16T13:31:48;3.97;;;1.48;;
21729;SDS011;11027;51.030;13.812;2023-07-16T13:34:14;3.70;;;1.55;;
21729;SDS011;11027;51.030;13.812;2023-07-16T13:36:39;2.55;;;1.48;;
21729;SDS011;11027;51.030;13.812;2023-07-16T13:39:05;2.95;;;1.45;;
21729;SDS011;11027;51.030;13.812;2023-07-16T13:41:31;2.30;;;1.45;;
21729;SDS011;11027;51.030;13.812;2023-07-16T13:43:56;5.18;;;1.65;;
21729;SDS011;11027;51.030;13.812;2023-07-16T13:46:21;2.93;;;1.40;;
21729;SDS011;11027;51.030;13.812;2023-07-16T13:48:47;3.70;;;1.80;;
21729;SDS011;11027;51.030;13.812;2023-07-16T13:51:12;3.53;;;1.60;;
21729;SDS011;11027;51.030;13.812;2023-07-16T13:53:37;5.13;;;1.73;;
21729;SDS011;11027;51.030;13.812;2023-07-16T13:56:03;4.32;;;1.50;;
21729;SDS011;11027;51.030;13.812;2023-07-16T13:58:28;4.40;;;1.38;;
21729;SDS011;11027;51.030;13.812;2023-07-16T14:00:53;6.13;;;3.00;;
21729;SDS011;11027;51.030;13.812;2023-07-16T14:03:18;3.03;;;1.13;;
21729;SDS011;11027;51.030;13.812;2023-07-16T14:05:44;6.18;;;1.30;;
21729;SDS011;11027;51.030;13.812;2023-07-16T14:08:09;3.47;;;1.30;;
21729;SDS011;11027;51.030;13.812;2023-07-16T14:10:35;1.55;;;1.15;;
21729;SDS011;11027;51.030;13.812;2023-07-16T14:13:00;2.33;;;1.35;;
21729;SDS011;11027;51.030;13.812;2023-07-16T14:15:25;2.53;;;1.30;;
21729;SDS011;11027;51.030;13.812;2023-07-16T14:17:50;4.57;;;1.87;;
21729;SDS011;11027;51.030;13.812;2023-07-16T14:20:16;5.57;;;1.40;;
21729;SDS011;11027;51.030;13.812;2023-07-16T14:22:41;2.33;;;1.58;;
21729;SDS011;11027;51.030;13.812;2023-07-16T14:25:06;3.80;;;1.25;;
21729;SDS011;11027;51.030;13.812;2023-07-16T14:27:32;4.53;;;1.48;;
21729;SDS011;11027;51.030;13.812;2023-07-16T14:29:58;2.97;;;1.40;;
21729;SDS011;11027;51.030;13.812;2023-07-16T14:32:24;2.65;;;1.30;;
21729;SDS011;11027;51.030;13.812;2023-07-16T14:34:49;2.20;;;1.25;;
21729;SDS011;11027;51.030;13.812;2023-07-16T14:37:15;1.88;;;1.25;;
21729;SDS011;11027;51.030;13.812;2023-07-16T14:39:40;2.22;;;1.40;;
21729;SDS011;11027;51.030;13.812;2023-07-16T14:42:06;3.92;;;1.40;;
21729;SDS011;11027;51.030;13.812;2023-07-16T14:44:32;4.63;;;1.53;;
21729;SDS011;11027;51.030;13.812;2023-07-16T14:46:57;5.05;;;1.60;;